Lahore Weather



Lahore's Current Weather

Temprature 24.99o smoke

smoke

Rain: 0 %

Min Temprature24.99o
Max Temprature25.06o
Humidity83
Wind Speed0 m/h
Sun Rise05:52:58
Sun Set17:55:10
Current Time: 26-Sep-2022 08:29:32
Lat/Lon: 31.5497, 74.3436




Lahore's Geo Location



Lahore's Weather Forecast

Time Overall Temp Min Temp Max Temp Humidity Wind Speed Rain
26-Sep-2022 (Mon)
11:00:00 scattered clouds 26.650 26.650 29.970 73 1.07 m/h 0 %
14:00:00 few clouds 30.240 30.240 32.860 56 1.66 m/h 0 %
17:00:00 clear sky 31.360 31.360 31.360 50 2.45 m/h 0 %
20:00:00 clear sky 27.130 27.130 27.130 66 2.66 m/h 0 %
23:00:00 clear sky 25.810 25.810 25.810 72 1.84 m/h 0 %
27-Sep-2022 (Tue)
02:00:00 clear sky 24.900 24.900 24.900 74 1.43 m/h 0 %
05:00:00 clear sky 24.090 24.090 24.090 77 1.67 m/h 0 %
08:00:00 clear sky 27.150 27.150 27.150 65 1.58 m/h 0 %
11:00:00 clear sky 32.720 32.720 32.720 45 0.72 m/h 0 %
14:00:00 clear sky 34.680 34.680 34.680 36 0.34 m/h 0 %
17:00:00 clear sky 33.080 33.080 33.080 42 1.72 m/h 0 %
20:00:00 clear sky 28.420 28.420 28.420 57 3.18 m/h 0 %
23:00:00 clear sky 26.930 26.930 26.930 65 2.75 m/h 0 %
28-Sep-2022 (Wed)
02:00:00 clear sky 25.990 25.990 25.990 68 2.3 m/h 0 %
05:00:00 clear sky 25.160 25.160 25.160 72 2.25 m/h 0 %
08:00:00 clear sky 27.870 27.870 27.870 61 2.25 m/h 0 %
11:00:00 clear sky 33.100 33.100 33.100 41 1.83 m/h 0 %
14:00:00 clear sky 35.520 35.520 35.520 32 0.82 m/h 0 %
17:00:00 clear sky 33.810 33.810 33.810 38 2.05 m/h 0 %
20:00:00 clear sky 28.730 28.730 28.730 58 3.43 m/h 0 %
23:00:00 clear sky 27.270 27.270 27.270 65 2.71 m/h 0 %
29-Sep-2022 (Thu)
02:00:00 clear sky 26.380 26.380 26.380 68 2.2 m/h 0 %
05:00:00 clear sky 25.530 25.530 25.530 70 2.08 m/h 0 %
08:00:00 clear sky 28.240 28.240 28.240 59 1.74 m/h 0 %
11:00:00 clear sky 34.080 34.080 34.080 36 0.75 m/h 0 %
14:00:00 clear sky 36.460 36.460 36.460 26 0.72 m/h 0 %
17:00:00 clear sky 34.650 34.650 34.650 31 0.68 m/h 0 %
20:00:00 clear sky 29.500 29.500 29.500 50 3.08 m/h 0 %
23:00:00 clear sky 27.780 27.780 27.780 61 2.24 m/h 0 %
30-Sep-2022 (Fri)
02:00:00 clear sky 26.640 26.640 26.640 64 2.15 m/h 0 %
05:00:00 clear sky 25.640 25.640 25.640 61 1.7 m/h 0 %
08:00:00 clear sky 28.550 28.550 28.550 44 0.89 m/h 0 %
11:00:00 clear sky 34.170 34.170 34.170 29 1.36 m/h 0 %
14:00:00 clear sky 36.440 36.440 36.440 25 1.68 m/h 0 %
17:00:00 clear sky 34.570 34.570 34.570 30 1.41 m/h 0 %
20:00:00 clear sky 29.460 29.460 29.460 48 3.01 m/h 0 %
23:00:00 clear sky 27.530 27.530 27.530 60 2.62 m/h 0 %
01-Oct-2022 (Sat)
02:00:00 clear sky 26.460 26.460 26.460 64 2.47 m/h 0 %
05:00:00 clear sky 25.410 25.410 25.410 63 1.8 m/h 0 %
08:00:00 clear sky 28.890 28.890 28.890 43 1.41 m/h 0 %


Lahore's Tourist Spots

Historical Places in Lahore

Famous Cities (61)